sensor_id;sensor_type;location;lat;lon;timestamp;P1;durP1;ratioP1;P2;durP2;ratioP2
23129;SDS011;11734;51.046;13.778;2022-12-19T00:01:36;33.40;;;18.33;;
23129;SDS011;11734;51.046;13.778;2022-12-19T00:04:05;29.07;;;16.57;;
23129;SDS011;11734;51.046;13.778;2022-12-19T00:06:35;29.03;;;14.97;;
23129;SDS011;11734;51.046;13.778;2022-12-19T00:09:09;30.73;;;17.53;;
23129;SDS011;11734;51.046;13.778;2022-12-19T00:11:37;30.63;;;16.23;;
23129;SDS011;11734;51.046;13.778;2022-12-19T00:14:05;31.07;;;17.50;;
23129;SDS011;11734;51.046;13.778;2022-12-19T00:16:32;34.20;;;17.37;;
23129;SDS011;11734;51.046;13.778;2022-12-19T00:19:00;33.03;;;17.07;;
23129;SDS011;11734;51.046;13.778;2022-12-19T00:21:28;31.00;;;16.57;;
23129;SDS011;11734;51.046;13.778;2022-12-19T00:24:00;32.17;;;17.57;;
23129;SDS011;11734;51.046;13.778;2022-12-19T00:26:46;30.87;;;15.83;;
23129;SDS011;11734;51.046;13.778;2022-12-19T00:29:13;29.70;;;16.33;;
23129;SDS011;11734;51.046;13.778;2022-12-19T00:31:42;31.87;;;15.37;;
23129;SDS011;11734;51.046;13.778;2022-12-19T00:34:09;26.53;;;14.43;;
23129;SDS011;11734;51.046;13.778;2022-12-19T00:36:38;31.57;;;16.50;;
23129;SDS011;11734;51.046;13.778;2022-12-19T00:39:05;26.80;;;15.20;;
23129;SDS011;11734;51.046;13.778;2022-12-19T00:41:34;23.57;;;12.47;;
23129;SDS011;11734;51.046;13.778;2022-12-19T00:44:08;32.67;;;15.00;;
23129;SDS011;11734;51.046;13.778;2022-12-19T00:46:40;27.83;;;15.20;;
23129;SDS011;11734;51.046;13.778;2022-12-19T00:49:07;27.53;;;15.60;;
23129;SDS011;11734;51.046;13.778;2022-12-19T00:51:35;24.43;;;13.10;;
23129;SDS011;11734;51.046;13.778;2022-12-19T00:54:06;19.07;;;9.73;;
23129;SDS011;11734;51.046;13.778;2022-12-19T00:56:35;25.83;;;13.57;;
23129;SDS011;11734;51.046;13.778;2022-12-19T00:59:05;23.27;;;12.70;;
23129;SDS011;11734;51.046;13.778;2022-12-19T01:01:33;22.73;;;12.73;;
23129;SDS011;11734;51.046;13.778;2022-12-19T01:04:04;27.27;;;15.43;;
23129;SDS011;11734;51.046;13.778;2022-12-19T01:06:51;29.77;;;15.20;;
23129;SDS011;11734;51.046;13.778;2022-12-19T01:09:18;27.10;;;15.53;;
23129;SDS011;11734;51.046;13.778;2022-12-19T01:11:48;28.00;;;15.90;;
23129;SDS011;11734;51.046;13.778;2022-12-19T01:14:33;28.37;;;15.53;;
23129;SDS011;11734;51.046;13.778;2022-12-19T01:17:00;26.67;;;14.97;;
23129;SDS011;11734;51.046;13.778;2022-12-19T01:19:27;26.57;;;14.30;;
23129;SDS011;11734;51.046;13.778;2022-12-19T01:21:54;26.67;;;13.87;;
23129;SDS011;11734;51.046;13.778;2022-12-19T01:24:22;30.77;;;15.03;;
23129;SDS011;11734;51.046;13.778;2022-12-19T01:26:49;27.33;;;13.53;;
23129;SDS011;11734;51.046;13.778;2022-12-19T01:29:16;25.60;;;13.87;;
23129;SDS011;11734;51.046;13.778;2022-12-19T01:31:42;27.93;;;14.47;;
23129;SDS011;11734;51.046;13.778;2022-12-19T01:34:09;25.30;;;12.37;;
23129;SDS011;11734;51.046;13.778;2022-12-19T01:36:36;28.13;;;13.50;;
23129;SDS011;11734;51.046;13.778;2022-12-19T01:39:05;27.77;;;13.97;;
23129;SDS011;11734;51.046;13.778;2022-12-19T01:41:33;21.57;;;10.63;;
23129;SDS011;11734;51.046;13.778;2022-12-19T01:44:04;25.97;;;14.60;;
23129;SDS011;11734;51.046;13.778;2022-12-19T01:46:33;17.17;;;9.83;;
23129;SDS011;11734;51.046;13.778;2022-12-19T01:49:02;24.67;;;14.43;;
23129;SDS011;11734;51.046;13.778;2022-12-19T01:51:44;28.23;;;13.63;;
23129;SDS011;11734;51.046;13.778;2022-12-19T01:54:14;29.03;;;15.83;;
23129;SDS011;11734;51.046;13.778;2022-12-19T01:56:46;26.20;;;14.50;;
23129;SDS011;11734;51.046;13.778;2022-12-19T01:59:21;27.73;;;14.70;;
23129;SDS011;11734;51.046;13.778;2022-12-19T02:02:01;30.47;;;14.77;;
23129;SDS011;11734;51.046;13.778;2022-12-19T02:04:36;22.27;;;11.97;;
23129;SDS011;11734;51.046;13.778;2022-12-19T02:07:08;25.90;;;12.83;;
23129;SDS011;11734;51.046;13.778;2022-12-19T02:09:45;24.73;;;12.80;;
23129;SDS011;11734;51.046;13.778;2022-12-19T02:12:27;23.83;;;11.87;;
23129;SDS011;11734;51.046;13.778;2022-12-19T02:14:57;19.67;;;10.57;;
23129;SDS011;11734;51.046;13.778;2022-12-19T02:34:52;19.30;;;10.90;;
23129;SDS011;11734;51.046;13.778;2022-12-19T02:37:29;19.93;;;9.17;;
23129;SDS011;11734;51.046;13.778;2022-12-19T02:40:09;22.53;;;11.70;;
23129;SDS011;11734;51.046;13.778;2022-12-19T02:42:48;20.77;;;11.37;;
23129;SDS011;11734;51.046;13.778;2022-12-19T02:45:20;17.20;;;9.07;;
23129;SDS011;11734;51.046;13.778;2022-12-19T02:47:54;18.43;;;9.63;;
23129;SDS011;11734;51.046;13.778;2022-12-19T02:50:37;20.90;;;10.90;;
23129;SDS011;11734;51.046;13.778;2022-12-19T02:53:08;22.00;;;11.30;;
23129;SDS011;11734;51.046;13.778;2022-12-19T02:55:38;21.67;;;11.70;;
23129;SDS011;11734;51.046;13.778;2022-12-19T03:01:00;23.70;;;12.23;;
23129;SDS011;11734;51.046;13.778;2022-12-19T03:03:51;21.27;;;11.40;;
23129;SDS011;11734;51.046;13.778;2022-12-19T03:06:32;20.57;;;10.83;;
23129;SDS011;11734;51.046;13.778;2022-12-19T03:09:09;25.87;;;12.33;;
23129;SDS011;11734;51.046;13.778;2022-12-19T03:11:40;21.37;;;11.10;;
23129;SDS011;11734;51.046;13.778;2022-12-19T03:14:12;24.43;;;12.10;;
23129;SDS011;11734;51.046;13.778;2022-12-19T03:16:42;21.17;;;11.73;;
23129;SDS011;11734;51.046;13.778;2022-12-19T03:19:11;22.27;;;10.63;;
23129;SDS011;11734;51.046;13.778;2022-12-19T03:21:43;23.53;;;12.47;;
23129;SDS011;11734;51.046;13.778;2022-12-19T03:24:15;25.70;;;12.93;;
23129;SDS011;11734;51.046;13.778;2022-12-19T03:29:28;24.03;;;10.37;;
23129;SDS011;11734;51.046;13.778;2022-12-19T03:32:19;20.33;;;10.03;;
23129;SDS011;11734;51.046;13.778;2022-12-19T03:37:38;17.57;;;9.67;;
23129;SDS011;11734;51.046;13.778;2022-12-19T03:40:10;24.37;;;13.23;;
23129;SDS011;11734;51.046;13.778;2022-12-19T03:42:41;24.30;;;13.23;;
23129;SDS011;11734;51.046;13.778;2022-12-19T03:45:39;26.10;;;13.23;;
23129;SDS011;11734;51.046;13.778;2022-12-19T03:48:33;24.57;;;11.90;;
23129;SDS011;11734;51.046;13.778;2022-12-19T03:58:54;28.13;;;13.57;;
23129;SDS011;11734;51.046;13.778;2022-12-19T04:01:26;27.27;;;13.60;;
23129;SDS011;11734;51.046;13.778;2022-12-19T04:03:57;29.13;;;14.10;;
23129;SDS011;11734;51.046;13.778;2022-12-19T04:06:26;28.10;;;13.60;;
23129;SDS011;11734;51.046;13.778;2022-12-19T04:08:56;25.97;;;13.20;;
23129;SDS011;11734;51.046;13.778;2022-12-19T04:11:26;24.77;;;13.87;;
23129;SDS011;11734;51.046;13.778;2022-12-19T04:14:00;23.90;;;12.97;;
23129;SDS011;11734;51.046;13.778;2022-12-19T04:19:11;21.17;;;10.90;;
23129;SDS011;11734;51.046;13.778;2022-12-19T04:22:16;31.13;;;14.50;;
23129;SDS011;11734;51.046;13.778;2022-12-19T04:24:48;28.07;;;13.50;;
23129;SDS011;11734;51.046;13.778;2022-12-19T04:27:18;29.10;;;13.43;;
23129;SDS011;11734;51.046;13.778;2022-12-19T04:29:46;31.40;;;14.73;;
23129;SDS011;11734;51.046;13.778;2022-12-19T04:32:17;29.33;;;14.43;;
23129;SDS011;11734;51.046;13.778;2022-12-19T04:34:45;29.13;;;15.10;;
23129;SDS011;11734;51.046;13.778;2022-12-19T04:37:11;28.53;;;14.80;;
23129;SDS011;11734;51.046;13.778;2022-12-19T04:39:38;27.13;;;14.70;;
23129;SDS011;11734;51.046;13.778;2022-12-19T04:42:06;28.47;;;13.73;;
23129;SDS011;11734;51.046;13.778;2022-12-19T04:44:33;32.10;;;15.80;;
23129;SDS011;11734;51.046;13.778;2022-12-19T04:47:00;28.27;;;14.77;;
23129;SDS011;11734;51.046;13.778;2022-12-19T04:49:27;31.03;;;15.07;;
23129;SDS011;11734;51.046;13.778;2022-12-19T04:51:54;28.40;;;13.83;;
23129;SDS011;11734;51.046;13.778;2022-12-19T04:54:21;31.17;;;15.23;;
23129;SDS011;11734;51.046;13.778;2022-12-19T04:56:48;29.63;;;15.17;;
23129;SDS011;11734;51.046;13.778;2022-12-19T04:59:15;30.30;;;15.50;;
23129;SDS011;11734;51.046;13.778;2022-12-19T05:01:41;29.03;;;14.97;;
23129;SDS011;11734;51.046;13.778;2022-12-19T05:04:09;32.70;;;15.90;;
23129;SDS011;11734;51.046;13.778;2022-12-19T05:06:36;31.47;;;15.23;;
23129;SDS011;11734;51.046;13.778;2022-12-19T05:09:03;31.40;;;16.40;;
23129;SDS011;11734;51.046;13.778;2022-12-19T05:11:30;34.27;;;16.67;;
23129;SDS011;11734;51.046;13.778;2022-12-19T05:13:57;29.40;;;15.97;;
23129;SDS011;11734;51.046;13.778;2022-12-19T05:16:24;32.23;;;16.27;;
23129;SDS011;11734;51.046;13.778;2022-12-19T05:18:52;31.33;;;15.80;;
23129;SDS011;11734;51.046;13.778;2022-12-19T05:21:19;31.77;;;15.67;;
23129;SDS011;11734;51.046;13.778;2022-12-19T05:23:47;27.30;;;14.23;;
23129;SDS011;11734;51.046;13.778;2022-12-19T05:26:15;28.80;;;14.53;;
23129;SDS011;11734;51.046;13.778;2022-12-19T05:28:42;29.17;;;14.20;;
23129;SDS011;11734;51.046;13.778;2022-12-19T05:33:38;30.17;;;14.93;;
23129;SDS011;11734;51.046;13.778;2022-12-19T05:36:06;30.77;;;14.67;;
23129;SDS011;11734;51.046;13.778;2022-12-19T05:38:33;28.90;;;14.77;;
23129;SDS011;11734;51.046;13.778;2022-12-19T05:41:08;31.23;;;15.33;;
23129;SDS011;11734;51.046;13.778;2022-12-19T05:43:50;31.07;;;16.10;;
23129;SDS011;11734;51.046;13.778;2022-12-19T05:46:19;35.00;;;16.77;;
23129;SDS011;11734;51.046;13.778;2022-12-19T05:48:46;27.23;;;13.37;;
23129;SDS011;11734;51.046;13.778;2022-12-19T05:51:14;31.97;;;14.80;;
23129;SDS011;11734;51.046;13.778;2022-12-19T05:53:41;32.67;;;15.33;;
23129;SDS011;11734;51.046;13.778;2022-12-19T05:56:10;30.67;;;15.03;;
23129;SDS011;11734;51.046;13.778;2022-12-19T05:58:40;31.00;;;14.93;;
23129;SDS011;11734;51.046;13.778;2022-12-19T06:01:16;32.83;;;16.83;;
23129;SDS011;11734;51.046;13.778;2022-12-19T06:03:48;29.37;;;15.77;;
23129;SDS011;11734;51.046;13.778;2022-12-19T06:06:17;25.77;;;13.17;;
23129;SDS011;11734;51.046;13.778;2022-12-19T06:08:45;32.23;;;16.93;;
23129;SDS011;11734;51.046;13.778;2022-12-19T06:11:13;34.40;;;16.23;;
23129;SDS011;11734;51.046;13.778;2022-12-19T06:13:40;31.27;;;14.23;;
23129;SDS011;11734;51.046;13.778;2022-12-19T06:16:09;29.43;;;16.03;;
23129;SDS011;11734;51.046;13.778;2022-12-19T06:18:39;32.57;;;16.73;;
23129;SDS011;11734;51.046;13.778;2022-12-19T06:21:14;32.47;;;16.40;;
23129;SDS011;11734;51.046;13.778;2022-12-19T06:23:43;27.30;;;13.93;;
23129;SDS011;11734;51.046;13.778;2022-12-19T06:26:11;31.97;;;15.80;;
23129;SDS011;11734;51.046;13.778;2022-12-19T06:28:45;35.83;;;16.90;;
23129;SDS011;11734;51.046;13.778;2022-12-19T06:31:13;33.23;;;16.10;;
23129;SDS011;11734;51.046;13.778;2022-12-19T06:33:40;40.00;;;18.30;;
23129;SDS011;11734;51.046;13.778;2022-12-19T06:38:40;38.47;;;17.77;;
23129;SDS011;11734;51.046;13.778;2022-12-19T06:41:08;36.67;;;16.50;;
23129;SDS011;11734;51.046;13.778;2022-12-19T06:43:57;39.67;;;18.43;;
23129;SDS011;11734;51.046;13.778;2022-12-19T06:46:25;38.33;;;18.20;;
23129;SDS011;11734;51.046;13.778;2022-12-19T06:48:52;33.77;;;15.73;;
23129;SDS011;11734;51.046;13.778;2022-12-19T06:51:19;26.60;;;13.77;;
23129;SDS011;11734;51.046;13.778;2022-12-19T06:53:47;39.40;;;18.87;;
23129;SDS011;11734;51.046;13.778;2022-12-19T06:56:14;36.77;;;18.43;;
23129;SDS011;11734;51.046;13.778;2022-12-19T06:58:42;36.10;;;17.83;;
23129;SDS011;11734;51.046;13.778;2022-12-19T07:01:16;33.07;;;16.40;;
23129;SDS011;11734;51.046;13.778;2022-12-19T07:03:49;35.10;;;17.50;;
23129;SDS011;11734;51.046;13.778;2022-12-19T07:06:16;34.67;;;18.20;;
23129;SDS011;11734;51.046;13.778;2022-12-19T07:08:43;38.00;;;18.27;;
23129;SDS011;11734;51.046;13.778;2022-12-19T07:11:10;31.47;;;15.17;;
23129;SDS011;11734;51.046;13.778;2022-12-19T07:13:37;39.50;;;19.23;;
23129;SDS011;11734;51.046;13.778;2022-12-19T07:16:04;33.40;;;15.57;;
23129;SDS011;11734;51.046;13.778;2022-12-19T07:18:33;32.57;;;16.37;;
23129;SDS011;11734;51.046;13.778;2022-12-19T07:21:02;35.83;;;16.93;;
23129;SDS011;11734;51.046;13.778;2022-12-19T07:23:31;33.97;;;16.43;;
23129;SDS011;11734;51.046;13.778;2022-12-19T07:25:59;34.47;;;17.90;;
23129;SDS011;11734;51.046;13.778;2022-12-19T07:28:26;38.73;;;18.40;;
23129;SDS011;11734;51.046;13.778;2022-12-19T07:30:53;35.07;;;16.67;;
23129;SDS011;11734;51.046;13.778;2022-12-19T07:33:20;33.43;;;17.83;;
23129;SDS011;11734;51.046;13.778;2022-12-19T07:35:47;32.87;;;16.37;;
23129;SDS011;11734;51.046;13.778;2022-12-19T07:38:14;29.43;;;14.97;;
23129;SDS011;11734;51.046;13.778;2022-12-19T07:40:41;34.03;;;16.57;;
23129;SDS011;11734;51.046;13.778;2022-12-19T07:43:08;32.13;;;15.10;;
23129;SDS011;11734;51.046;13.778;2022-12-19T07:45:36;34.20;;;17.30;;
23129;SDS011;11734;51.046;13.778;2022-12-19T07:48:04;32.60;;;16.23;;
23129;SDS011;11734;51.046;13.778;2022-12-19T07:50:32;34.17;;;16.87;;
23129;SDS011;11734;51.046;13.778;2022-12-19T07:52:59;31.93;;;16.37;;
23129;SDS011;11734;51.046;13.778;2022-12-19T07:55:26;36.20;;;17.60;;
23129;SDS011;11734;51.046;13.778;2022-12-19T07:57:53;34.97;;;17.93;;
23129;SDS011;11734;51.046;13.778;2022-12-19T08:00:21;30.93;;;14.30;;
23129;SDS011;11734;51.046;13.778;2022-12-19T08:02:49;31.53;;;17.10;;
23129;SDS011;11734;51.046;13.778;2022-12-19T08:05:16;33.90;;;16.67;;
23129;SDS011;11734;51.046;13.778;2022-12-19T08:07:44;36.03;;;17.50;;
23129;SDS011;11734;51.046;13.778;2022-12-19T08:10:11;34.00;;;14.77;;
23129;SDS011;11734;51.046;13.778;2022-12-19T08:12:40;30.43;;;15.60;;
23129;SDS011;11734;51.046;13.778;2022-12-19T08:15:08;26.37;;;13.17;;
23129;SDS011;11734;51.046;13.778;2022-12-19T08:17:36;29.23;;;14.30;;
23129;SDS011;11734;51.046;13.778;2022-12-19T08:20:04;31.33;;;16.33;;
23129;SDS011;11734;51.046;13.778;2022-12-19T08:22:32;28.67;;;14.10;;
23129;SDS011;11734;51.046;13.778;2022-12-19T08:24:59;33.67;;;17.30;;
23129;SDS011;11734;51.046;13.778;2022-12-19T08:27:27;29.37;;;12.87;;
23129;SDS011;11734;51.046;13.778;2022-12-19T08:29:54;27.50;;;13.87;;
23129;SDS011;11734;51.046;13.778;2022-12-19T08:32:21;35.73;;;17.03;;
23129;SDS011;11734;51.046;13.778;2022-12-19T08:34:48;31.53;;;13.90;;
23129;SDS011;11734;51.046;13.778;2022-12-19T08:37:16;34.37;;;16.80;;
23129;SDS011;11734;51.046;13.778;2022-12-19T08:39:43;29.80;;;15.10;;
23129;SDS011;11734;51.046;13.778;2022-12-19T08:42:10;30.10;;;16.10;;
23129;SDS011;11734;51.046;13.778;2022-12-19T08:44:38;33.10;;;16.70;;
23129;SDS011;11734;51.046;13.778;2022-12-19T08:47:05;30.67;;;15.70;;
23129;SDS011;11734;51.046;13.778;2022-12-19T08:49:32;33.73;;;16.30;;
23129;SDS011;11734;51.046;13.778;2022-12-19T08:52:00;33.33;;;18.30;;
23129;SDS011;11734;51.046;13.778;2022-12-19T08:54:27;32.47;;;15.77;;
23129;SDS011;11734;51.046;13.778;2022-12-19T08:56:54;28.60;;;14.67;;
23129;SDS011;11734;51.046;13.778;2022-12-19T08:59:22;29.07;;;14.13;;
23129;SDS011;11734;51.046;13.778;2022-12-19T09:01:57;33.70;;;16.47;;
23129;SDS011;11734;51.046;13.778;2022-12-19T09:04:26;30.33;;;15.10;;
23129;SDS011;11734;51.046;13.778;2022-12-19T09:07:13;33.27;;;15.17;;
23129;SDS011;11734;51.046;13.778;2022-12-19T09:09:42;32.67;;;17.60;;
23129;SDS011;11734;51.046;13.778;2022-12-19T09:12:10;31.27;;;15.97;;
23129;SDS011;11734;51.046;13.778;2022-12-19T09:14:37;31.43;;;16.90;;
23129;SDS011;11734;51.046;13.778;2022-12-19T09:17:05;22.03;;;10.63;;
23129;SDS011;11734;51.046;13.778;2022-12-19T09:19:32;33.03;;;16.67;;
23129;SDS011;11734;51.046;13.778;2022-12-19T09:21:59;31.37;;;15.60;;
23129;SDS011;11734;51.046;13.778;2022-12-19T09:24:27;32.27;;;15.00;;
23129;SDS011;11734;51.046;13.778;2022-12-19T09:26:54;33.73;;;16.40;;
23129;SDS011;11734;51.046;13.778;2022-12-19T09:29:21;31.20;;;15.73;;
23129;SDS011;11734;51.046;13.778;2022-12-19T09:31:49;33.67;;;16.60;;
23129;SDS011;11734;51.046;13.778;2022-12-19T09:34:25;35.17;;;17.23;;
23129;SDS011;11734;51.046;13.778;2022-12-19T09:37:08;29.17;;;14.73;;
23129;SDS011;11734;51.046;13.778;2022-12-19T09:39:43;36.67;;;17.47;;
23129;SDS011;11734;51.046;13.778;2022-12-19T09:45:08;31.13;;;14.57;;
23129;SDS011;11734;51.046;13.778;2022-12-19T09:47:46;33.77;;;17.37;;
23129;SDS011;11734;51.046;13.778;2022-12-19T09:53:04;37.70;;;17.90;;
23129;SDS011;11734;51.046;13.778;2022-12-19T09:55:33;37.37;;;19.60;;
23129;SDS011;11734;51.046;13.778;2022-12-19T09:58:10;37.63;;;19.07;;
23129;SDS011;11734;51.046;13.778;2022-12-19T10:00:56;37.37;;;17.57;;
23129;SDS011;11734;51.046;13.778;2022-12-19T10:03:34;39.73;;;19.87;;
23129;SDS011;11734;51.046;13.778;2022-12-19T10:06:20;37.53;;;18.60;;
23129;SDS011;11734;51.046;13.778;2022-12-19T10:09:12;36.30;;;17.67;;
23129;SDS011;11734;51.046;13.778;2022-12-19T10:12:31;34.47;;;18.40;;
23129;SDS011;11734;51.046;13.778;2022-12-19T10:20:36;34.70;;;17.10;;
23129;SDS011;11734;51.046;13.778;2022-12-19T10:31:16;33.80;;;17.27;;
23129;SDS011;11734;51.046;13.778;2022-12-19T10:34:10;35.47;;;17.90;;
23129;SDS011;11734;51.046;13.778;2022-12-19T10:36:50;31.00;;;15.03;;
23129;SDS011;11734;51.046;13.778;2022-12-19T10:42:14;30.40;;;15.37;;
23129;SDS011;11734;51.046;13.778;2022-12-19T10:45:00;32.50;;;16.40;;
23129;SDS011;11734;51.046;13.778;2022-12-19T10:47:31;35.33;;;17.87;;
23129;SDS011;11734;51.046;13.778;2022-12-19T10:49:58;29.40;;;16.20;;
23129;SDS011;11734;51.046;13.778;2022-12-19T10:55:20;32.07;;;16.10;;
23129;SDS011;11734;51.046;13.778;2022-12-19T11:00:44;33.17;;;13.93;;
23129;SDS011;11734;51.046;13.778;2022-12-19T11:03:20;28.80;;;15.43;;
23129;SDS011;11734;51.046;13.778;2022-12-19T11:05:49;32.27;;;16.23;;
23129;SDS011;11734;51.046;13.778;2022-12-19T11:08:27;32.57;;;16.37;;
23129;SDS011;11734;51.046;13.778;2022-12-19T11:11:08;31.90;;;15.53;;
23129;SDS011;11734;51.046;13.778;2022-12-19T11:13:57;30.10;;;14.00;;
23129;SDS011;11734;51.046;13.778;2022-12-19T11:16:44;29.17;;;15.70;;
23129;SDS011;11734;51.046;13.778;2022-12-19T11:19:35;35.30;;;17.10;;
23129;SDS011;11734;51.046;13.778;2022-12-19T11:22:25;33.07;;;16.60;;
23129;SDS011;11734;51.046;13.778;2022-12-19T11:25:16;27.97;;;14.77;;
23129;SDS011;11734;51.046;13.778;2022-12-19T11:28:28;27.87;;;14.00;;
23129;SDS011;11734;51.046;13.778;2022-12-19T11:31:20;30.63;;;16.33;;
23129;SDS011;11734;51.046;13.778;2022-12-19T11:34:18;31.13;;;16.50;;
23129;SDS011;11734;51.046;13.778;2022-12-19T11:39:44;26.63;;;14.03;;
23129;SDS011;11734;51.046;13.778;2022-12-19T11:42:20;33.20;;;14.67;;
23129;SDS011;11734;51.046;13.778;2022-12-19T11:48:12;32.87;;;16.23;;
23129;SDS011;11734;51.046;13.778;2022-12-19T11:53:43;32.53;;;15.60;;
23129;SDS011;11734;51.046;13.778;2022-12-19T11:56:19;36.40;;;17.87;;
23129;SDS011;11734;51.046;13.778;2022-12-19T11:58:50;24.43;;;11.90;;
23129;SDS011;11734;51.046;13.778;2022-12-19T12:03:56;28.00;;;14.63;;
23129;SDS011;11734;51.046;13.778;2022-12-19T12:06:45;35.33;;;18.67;;
23129;SDS011;11734;51.046;13.778;2022-12-19T12:12:37;34.37;;;16.37;;
23129;SDS011;11734;51.046;13.778;2022-12-19T12:18:57;36.73;;;18.47;;
23129;SDS011;11734;51.046;13.778;2022-12-19T12:40:40;33.50;;;18.13;;
23129;SDS011;11734;51.046;13.778;2022-12-19T12:46:29;27.47;;;14.37;;
23129;SDS011;11734;51.046;13.778;2022-12-19T12:49:04;32.23;;;15.93;;
23129;SDS011;11734;51.046;13.778;2022-12-19T12:51:37;34.30;;;17.33;;
23129;SDS011;11734;51.046;13.778;2022-12-19T12:54:05;32.00;;;17.50;;
23129;SDS011;11734;51.046;13.778;2022-12-19T12:56:37;30.77;;;14.87;;
23129;SDS011;11734;51.046;13.778;2022-12-19T12:59:19;35.87;;;19.47;;
23129;SDS011;11734;51.046;13.778;2022-12-19T13:01:50;31.90;;;15.57;;
23129;SDS011;11734;51.046;13.778;2022-12-19T13:04:26;33.73;;;17.90;;
23129;SDS011;11734;51.046;13.778;2022-12-19T13:07:01;34.57;;;16.63;;
23129;SDS011;11734;51.046;13.778;2022-12-19T13:09:39;37.00;;;17.77;;
23129;SDS011;11734;51.046;13.778;2022-12-19T13:15:25;35.70;;;17.97;;
23129;SDS011;11734;51.046;13.778;2022-12-19T13:20:42;37.63;;;20.50;;
23129;SDS011;11734;51.046;13.778;2022-12-19T13:26:18;35.00;;;17.40;;
23129;SDS011;11734;51.046;13.778;2022-12-19T13:32:06;38.93;;;20.43;;
23129;SDS011;11734;51.046;13.778;2022-12-19T13:34:34;36.73;;;19.67;;
23129;SDS011;11734;51.046;13.778;2022-12-19T13:45:50;36.83;;;17.73;;
23129;SDS011;11734;51.046;13.778;2022-12-19T13:48:36;37.50;;;18.87;;
23129;SDS011;11734;51.046;13.778;2022-12-19T13:51:09;38.97;;;20.20;;
23129;SDS011;11734;51.046;13.778;2022-12-19T13:53:37;38.43;;;20.43;;
23129;SDS011;11734;51.046;13.778;2022-12-19T13:58:50;42.47;;;21.13;;
23129;SDS011;11734;51.046;13.778;2022-12-19T14:01:30;40.10;;;21.40;;
23129;SDS011;11734;51.046;13.778;2022-12-19T14:04:05;38.57;;;20.77;;
23129;SDS011;11734;51.046;13.778;2022-12-19T14:06:40;42.53;;;22.30;;
23129;SDS011;11734;51.046;13.778;2022-12-19T14:09:20;39.83;;;21.43;;
23129;SDS011;11734;51.046;13.778;2022-12-19T14:12:33;42.33;;;22.10;;
23129;SDS011;11734;51.046;13.778;2022-12-19T14:15:46;46.07;;;23.43;;
23129;SDS011;11734;51.046;13.778;2022-12-19T14:18:22;41.83;;;22.03;;
23129;SDS011;11734;51.046;13.778;2022-12-19T14:21:14;39.53;;;21.30;;
23129;SDS011;11734;51.046;13.778;2022-12-19T14:24:17;39.30;;;20.47;;
23129;SDS011;11734;51.046;13.778;2022-12-19T14:26:47;46.97;;;23.03;;
23129;SDS011;11734;51.046;13.778;2022-12-19T14:29:45;43.33;;;23.03;;
23129;SDS011;11734;51.046;13.778;2022-12-19T14:32:38;41.47;;;21.97;;
23129;SDS011;11734;51.046;13.778;2022-12-19T14:35:27;44.77;;;22.27;;
23129;SDS011;11734;51.046;13.778;2022-12-19T14:38:26;47.03;;;22.53;;
23129;SDS011;11734;51.046;13.778;2022-12-19T14:41:18;41.67;;;22.30;;
23129;SDS011;11734;51.046;13.778;2022-12-19T14:44:16;38.90;;;17.70;;
23129;SDS011;11734;51.046;13.778;2022-12-19T14:47:11;41.53;;;22.73;;
23129;SDS011;11734;51.046;13.778;2022-12-19T14:56:10;43.13;;;19.70;;
23129;SDS011;11734;51.046;13.778;2022-12-19T14:59:03;40.77;;;21.80;;
23129;SDS011;11734;51.046;13.778;2022-12-19T15:01:31;43.87;;;22.53;;
23129;SDS011;11734;51.046;13.778;2022-12-19T15:04:03;43.33;;;21.17;;
23129;SDS011;11734;51.046;13.778;2022-12-19T15:06:54;40.40;;;21.07;;
23129;SDS011;11734;51.046;13.778;2022-12-19T15:16:02;39.93;;;20.70;;
23129;SDS011;11734;51.046;13.778;2022-12-19T15:20:59;41.53;;;22.77;;
23129;SDS011;11734;51.046;13.778;2022-12-19T15:23:27;41.67;;;19.13;;
23129;SDS011;11734;51.046;13.778;2022-12-19T15:25:56;40.60;;;21.87;;
23129;SDS011;11734;51.046;13.778;2022-12-19T15:28:39;41.17;;;21.07;;
23129;SDS011;11734;51.046;13.778;2022-12-19T15:31:22;42.77;;;21.50;;
23129;SDS011;11734;51.046;13.778;2022-12-19T15:34:27;38.53;;;20.37;;
23129;SDS011;11734;51.046;13.778;2022-12-19T15:37:15;35.60;;;18.00;;
23129;SDS011;11734;51.046;13.778;2022-12-19T15:39:42;41.97;;;21.67;;
23129;SDS011;11734;51.046;13.778;2022-12-19T15:42:19;36.93;;;19.83;;
23129;SDS011;11734;51.046;13.778;2022-12-19T15:44:49;35.57;;;20.77;;
23129;SDS011;11734;51.046;13.778;2022-12-19T15:47:24;37.70;;;20.47;;
23129;SDS011;11734;51.046;13.778;2022-12-19T15:49:59;41.37;;;21.20;;
23129;SDS011;11734;51.046;13.778;2022-12-19T15:52:31;33.40;;;18.13;;
23129;SDS011;11734;51.046;13.778;2022-12-19T15:54:58;36.00;;;19.47;;
23129;SDS011;11734;51.046;13.778;2022-12-19T15:57:42;37.03;;;19.33;;
23129;SDS011;11734;51.046;13.778;2022-12-19T16:00:19;36.80;;;19.83;;
23129;SDS011;11734;51.046;13.778;2022-12-19T16:02:49;39.87;;;21.93;;
23129;SDS011;11734;51.046;13.778;2022-12-19T16:08:23;30.43;;;16.53;;
23129;SDS011;11734;51.046;13.778;2022-12-19T16:10:54;37.50;;;19.90;;
23129;SDS011;11734;51.046;13.778;2022-12-19T16:13:27;36.83;;;20.73;;
23129;SDS011;11734;51.046;13.778;2022-12-19T16:15:56;33.80;;;19.10;;
23129;SDS011;11734;51.046;13.778;2022-12-19T16:18:25;36.67;;;20.00;;
23129;SDS011;11734;51.046;13.778;2022-12-19T16:20:53;34.33;;;19.33;;
23129;SDS011;11734;51.046;13.778;2022-12-19T16:23:25;33.80;;;19.87;;
23129;SDS011;11734;51.046;13.778;2022-12-19T16:25:52;37.73;;;21.00;;
23129;SDS011;11734;51.046;13.778;2022-12-19T16:28:29;34.93;;;18.43;;
23129;SDS011;11734;51.046;13.778;2022-12-19T16:30:59;35.13;;;18.80;;
23129;SDS011;11734;51.046;13.778;2022-12-19T16:33:40;35.47;;;19.93;;
23129;SDS011;11734;51.046;13.778;2022-12-19T16:36:07;34.30;;;19.17;;
23129;SDS011;11734;51.046;13.778;2022-12-19T16:38:35;33.23;;;20.30;;
23129;SDS011;11734;51.046;13.778;2022-12-19T16:41:02;36.17;;;19.00;;
23129;SDS011;11734;51.046;13.778;2022-12-19T16:46:01;40.43;;;21.17;;
23129;SDS011;11734;51.046;13.778;2022-12-19T16:48:31;34.50;;;18.80;;
23129;SDS011;11734;51.046;13.778;2022-12-19T16:51:00;33.93;;;20.20;;
23129;SDS011;11734;51.046;13.778;2022-12-19T16:53:27;29.70;;;17.17;;
23129;SDS011;11734;51.046;13.778;2022-12-19T16:55:55;33.97;;;19.97;;
23129;SDS011;11734;51.046;13.778;2022-12-19T16:58:24;34.33;;;19.23;;
23129;SDS011;11734;51.046;13.778;2022-12-19T17:00:54;34.10;;;20.47;;
23129;SDS011;11734;51.046;13.778;2022-12-19T17:03:31;37.93;;;20.87;;
23129;SDS011;11734;51.046;13.778;2022-12-19T17:06:10;38.10;;;20.53;;
23129;SDS011;11734;51.046;13.778;2022-12-19T17:08:39;24.83;;;14.40;;
23129;SDS011;11734;51.046;13.778;2022-12-19T17:11:10;32.73;;;18.97;;
23129;SDS011;11734;51.046;13.778;2022-12-19T17:13:50;35.60;;;19.17;;
23129;SDS011;11734;51.046;13.778;2022-12-19T17:16:22;36.87;;;21.07;;
23129;SDS011;11734;51.046;13.778;2022-12-19T17:18:49;33.93;;;19.60;;